createdAt,value
2022-10-28T00:00:08.696Z,95.14
2022-10-28T00:02:35.270Z,95.31
2022-10-28T00:05:01.763Z,95.38
2022-10-28T00:07:28.378Z,95.19
2022-10-28T00:09:54.861Z,95.36
2022-10-28T00:12:21.500Z,95.36
2022-10-28T00:14:47.961Z,95.38
2022-10-28T00:17:14.561Z,95.40
2022-10-28T00:19:41.143Z,95.57
2022-10-28T00:22:07.634Z,95.36
2022-10-28T00:24:34.115Z,95.61
2022-10-28T00:27:00.746Z,95.53
2022-10-28T00:29:27.215Z,95.47
2022-10-28T00:31:53.758Z,95.54
2022-10-28T00:34:23.597Z,95.39
2022-10-28T00:36:50.316Z,95.52
2022-10-28T00:39:18.330Z,95.36
2022-10-28T00:41:47.237Z,95.50
2022-10-28T00:44:32.600Z,95.33
2022-10-28T00:46:59.136Z,95.53
2022-10-28T00:49:28.934Z,95.46
2022-10-28T00:52:07.462Z,95.52
2022-10-28T00:54:34.655Z,95.62
2022-10-28T00:57:03.306Z,95.54
2022-10-28T00:59:33.104Z,95.60
2022-10-28T01:02:00.383Z,95.71
2022-10-28T01:04:27.155Z,95.30
2022-10-28T01:06:55.594Z,95.60
2022-10-28T01:09:22.364Z,95.50
2022-10-28T01:11:55.247Z,95.65
2022-10-28T01:14:40.622Z,95.49
2022-10-28T01:17:25.729Z,95.59
2022-10-28T01:20:04.458Z,95.58
2022-10-28T01:22:36.398Z,95.62
2022-10-28T01:25:30.483Z,95.41
2022-10-28T01:27:59.982Z,95.63
2022-10-28T01:30:38.900Z,95.45
2022-10-28T01:33:13.287Z,95.53
2022-10-28T01:36:02.870Z,95.42
2022-10-28T01:38:38.542Z,95.55
2022-10-28T01:41:09.893Z,95.54
2022-10-28T01:44:00.093Z,95.72
2022-10-28T01:46:55.976Z,95.63
2022-10-28T01:49:31.844Z,95.78
2022-10-28T01:52:02.015Z,95.64
2022-10-28T01:54:29.597Z,95.60
2022-10-28T01:56:57.078Z,95.52
2022-10-28T01:59:26.733Z,95.70
2022-10-28T02:01:54.310Z,95.83
2022-10-28T02:04:20.895Z,95.54
2022-10-28T02:06:49.814Z,95.71
2022-10-28T02:09:22.544Z,95.51
2022-10-28T02:11:52.205Z,95.54
2022-10-28T02:14:21.478Z,95.78
2022-10-28T02:16:50.227Z,95.54
2022-10-28T02:19:32.262Z,95.57
2022-10-28T02:21:58.802Z,95.63
2022-10-28T02:24:43.887Z,95.60
2022-10-28T02:27:10.350Z,95.46
2022-10-28T02:29:40.820Z,95.63
2022-10-28T02:32:11.430Z,95.79
2022-10-28T02:34:42.099Z,95.54
2022-10-28T02:37:11.357Z,95.71
2022-10-28T02:39:42.619Z,95.76
2022-10-28T02:42:11.879Z,95.88
2022-10-28T02:44:44.857Z,95.87
2022-10-28T02:47:14.202Z,95.52
2022-10-28T02:49:43.233Z,95.63
2022-10-28T02:52:10.648Z,95.55
2022-10-28T02:54:43.799Z,95.81
2022-10-28T02:57:12.859Z,95.64
2022-10-28T02:59:39.978Z,95.57
2022-10-28T03:02:06.602Z,95.54
2022-10-28T03:04:33.138Z,95.65
2022-10-28T03:06:59.612Z,95.81
2022-10-28T03:09:26.195Z,95.61
2022-10-28T03:11:52.681Z,95.86
2022-10-28T03:14:19.197Z,95.86
2022-10-28T03:16:45.738Z,95.52
2022-10-28T03:19:12.287Z,95.73
2022-10-28T03:21:38.943Z,95.88
2022-10-28T03:24:05.545Z,95.70
2022-10-28T03:26:32.068Z,95.84
2022-10-28T03:28:58.575Z,95.78
2022-10-28T03:31:25.078Z,95.58
2022-10-28T03:33:51.592Z,95.62
2022-10-28T03:36:18.079Z,95.73
2022-10-28T03:38:44.698Z,95.91
2022-10-28T03:41:11.191Z,96.07
2022-10-28T03:43:37.690Z,95.67
2022-10-28T03:46:04.239Z,96.01
2022-10-28T03:48:30.781Z,96.07
2022-10-28T03:50:57.343Z,95.92
2022-10-28T03:53:27.572Z,95.81
2022-10-28T03:55:56.863Z,95.81
2022-10-28T03:58:23.702Z,95.95
2022-10-28T04:00:54.155Z,96.08
2022-10-28T04:03:22.273Z,95.81
2022-10-28T04:05:48.837Z,95.82
2022-10-28T04:08:15.742Z,95.86
2022-10-28T04:10:47.136Z,96.08
2022-10-28T04:13:14.733Z,96.01
2022-10-28T04:15:41.245Z,95.89
2022-10-28T04:18:07.780Z,95.99
2022-10-28T04:20:34.432Z,96.05
2022-10-28T04:23:01.282Z,96.06
2022-10-28T04:25:28.348Z,96.08
2022-10-28T04:27:55.756Z,96.00
2022-10-28T04:30:22.713Z,95.92
2022-10-28T04:32:49.240Z,95.95
2022-10-28T04:35:15.769Z,96.04
2022-10-28T04:37:42.326Z,96.11
2022-10-28T04:40:09.130Z,96.02
2022-10-28T04:42:36.036Z,95.84
2022-10-28T04:45:02.697Z,96.09
2022-10-28T04:47:29.333Z,96.13
2022-10-28T04:49:55.833Z,96.10
2022-10-28T04:52:22.424Z,96.12
2022-10-28T04:54:48.948Z,96.18
2022-10-28T04:57:15.445Z,96.13
2022-10-28T04:59:42.016Z,96.10
2022-10-28T05:02:08.590Z,96.05
2022-10-28T05:04:35.338Z,96.00
2022-10-28T05:07:01.898Z,96.19
2022-10-28T05:09:28.400Z,96.10
2022-10-28T05:11:54.878Z,96.18
2022-10-28T05:14:21.510Z,95.89
2022-10-28T05:16:48.631Z,96.21
2022-10-28T05:19:15.153Z,96.04
2022-10-28T05:21:41.650Z,96.08
2022-10-28T05:24:08.313Z,95.97
2022-10-28T05:26:34.823Z,96.12
2022-10-28T05:29:01.295Z,96.06
2022-10-28T05:31:27.884Z,95.95
2022-10-28T05:33:54.407Z,95.86
2022-10-28T05:36:21.019Z,96.09
2022-10-28T05:38:47.547Z,96.09
2022-10-28T05:41:14.098Z,96.06
2022-10-28T05:43:40.602Z,95.88
2022-10-28T05:46:07.156Z,95.96
2022-10-28T05:48:33.948Z,95.86
2022-10-28T05:51:00.439Z,96.12
2022-10-28T05:53:26.911Z,96.09
2022-10-28T05:55:53.390Z,96.14
2022-10-28T05:58:19.982Z,95.87
2022-10-28T06:00:46.494Z,95.91
2022-10-28T06:03:13.086Z,95.83
2022-10-28T06:05:41.835Z,95.87
2022-10-28T06:08:08.424Z,95.83
2022-10-28T06:10:35.032Z,95.78
2022-10-28T06:13:00.034Z,95.88
2022-10-28T06:15:26.632Z,95.91
2022-10-28T06:17:53.226Z,96.02
2022-10-28T06:20:19.921Z,95.67
2022-10-28T06:22:50.018Z,95.67
2022-10-28T06:25:17.566Z,95.77
2022-10-28T06:27:44.045Z,95.81
2022-10-28T06:30:11.078Z,95.83
2022-10-28T06:32:37.721Z,95.78
2022-10-28T06:35:04.354Z,95.66
2022-10-28T06:37:31.255Z,95.77
2022-10-28T06:39:58.888Z,95.45
2022-10-28T06:42:25.394Z,95.55
2022-10-28T06:44:53.155Z,95.33
2022-10-28T06:47:21.626Z,95.45
2022-10-28T06:49:48.214Z,95.54
2022-10-28T06:52:14.857Z,95.51
2022-10-28T06:54:41.487Z,95.21
2022-10-28T06:57:08.011Z,95.09
2022-10-28T06:59:34.563Z,95.16
2022-10-28T07:02:01.219Z,95.23
2022-10-28T07:04:27.888Z,95.01
2022-10-28T07:06:55.441Z,94.95
2022-10-28T07:09:22.075Z,94.76
2022-10-28T07:11:55.136Z,94.46
2022-10-28T07:22:17.461Z,94.09
2022-10-28T07:24:43.959Z,94.04
2022-10-28T07:27:10.453Z,93.99
2022-10-28T07:29:36.993Z,93.63
2022-10-28T07:32:03.589Z,93.48
2022-10-28T07:34:30.107Z,93.40
2022-10-28T07:36:56.668Z,93.48
2022-10-28T07:39:23.477Z,93.48
2022-10-28T07:41:50.133Z,93.11
2022-10-28T07:44:16.701Z,93.44
2022-10-28T07:46:43.540Z,93.29
2022-10-28T07:49:10.028Z,93.06
2022-10-28T07:51:36.542Z,93.06
2022-10-28T07:54:03.157Z,92.85
2022-10-28T07:56:29.673Z,92.88
2022-10-28T07:58:56.189Z,92.77
2022-10-28T08:01:22.760Z,92.56
2022-10-28T08:03:49.304Z,92.51
2022-10-28T08:06:17.649Z,92.24
2022-10-28T08:08:45.023Z,92.40
2022-10-28T08:11:12.931Z,92.19
2022-10-28T08:13:40.353Z,92.18
2022-10-28T08:16:08.100Z,92.11
2022-10-28T08:19:04.029Z,91.92
2022-10-28T08:21:35.125Z,91.95
2022-10-28T08:24:05.256Z,91.77
2022-10-28T08:26:33.255Z,91.52
2022-10-28T08:29:03.309Z,91.32
2022-10-28T08:31:34.869Z,91.01
2022-10-28T08:34:17.266Z,91.07
2022-10-28T08:37:12.420Z,91.02
2022-10-28T08:40:10.837Z,90.93
2022-10-28T08:43:09.061Z,90.83
2022-10-28T08:45:59.966Z,90.48
2022-10-28T08:48:41.152Z,90.45
2022-10-28T08:51:20.796Z,90.50
2022-10-28T08:53:47.296Z,90.06
2022-10-28T08:56:16.337Z,89.87
2022-10-28T08:58:44.387Z,89.42
2022-10-28T09:01:16.771Z,89.58
2022-10-28T09:03:45.005Z,89.30
2022-10-28T09:06:11.656Z,89.09
2022-10-28T09:08:45.489Z,88.78
2022-10-28T09:11:30.805Z,88.92
2022-10-28T09:14:15.719Z,88.87
2022-10-28T09:16:59.708Z,88.89
2022-10-28T09:19:35.875Z,89.02
2022-10-28T09:22:02.362Z,88.70
2022-10-28T09:24:43.958Z,88.49
2022-10-28T09:27:19.564Z,88.04
2022-10-28T09:29:49.094Z,87.92
2022-10-28T09:32:18.780Z,88.09
2022-10-28T09:35:06.391Z,88.29
2022-10-28T09:37:37.182Z,88.46
2022-10-28T09:40:19.266Z,88.17
2022-10-28T09:42:50.488Z,88.41
2022-10-28T09:45:19.617Z,87.80
2022-10-28T09:47:50.860Z,87.46
2022-10-28T09:50:22.790Z,87.49
2022-10-28T09:52:49.269Z,87.40
2022-10-28T09:55:22.607Z,87.34
2022-10-28T09:57:49.340Z,86.90
2022-10-28T10:00:16.752Z,86.72
2022-10-28T10:02:44.543Z,87.46
2022-10-28T10:05:16.831Z,87.57
2022-10-28T10:08:04.330Z,87.50
2022-10-28T10:14:38.413Z,87.57
2022-10-28T10:17:21.210Z,87.58
2022-10-28T10:23:37.472Z,87.49
2022-10-28T10:26:11.191Z,87.38
2022-10-28T10:28:43.829Z,86.73
2022-10-28T10:31:18.289Z,86.63
2022-10-28T10:33:48.677Z,87.46
2022-10-28T10:36:17.400Z,87.51
2022-10-28T10:39:11.369Z,87.39
2022-10-28T10:41:46.314Z,87.41
2022-10-28T10:44:23.384Z,87.56
2022-10-28T10:47:03.452Z,87.51
2022-10-28T10:49:59.943Z,87.83
2022-10-28T10:52:31.526Z,87.83
2022-10-28T10:55:01.272Z,87.63
2022-10-28T10:57:28.539Z,87.65
2022-10-28T10:59:56.643Z,87.70
2022-10-28T11:02:35.144Z,88.09
2022-10-28T11:05:07.158Z,88.22
2022-10-28T11:07:33.933Z,87.98
2022-10-28T11:10:00.803Z,87.81
2022-10-28T11:12:29.227Z,87.86
2022-10-28T11:14:55.782Z,87.32
2022-10-28T11:17:24.849Z,87.24
2022-10-28T11:19:54.115Z,87.15
2022-10-28T11:22:32.864Z,86.85
2022-10-28T11:25:17.760Z,86.06
2022-10-28T11:28:01.662Z,85.73
2022-10-28T11:30:43.246Z,85.76
2022-10-28T11:33:30.415Z,85.63
2022-10-28T11:36:05.392Z,85.82
2022-10-28T11:39:05.809Z,85.61
2022-10-28T11:42:10.775Z,85.93
2022-10-28T11:52:47.595Z,85.86
2022-10-28T11:55:32.678Z,85.38
2022-10-28T12:00:51.504Z,84.90
2022-10-28T12:03:23.926Z,84.01
2022-10-28T12:05:55.876Z,84.24
2022-10-28T12:08:34.960Z,84.32
2022-10-28T12:11:04.490Z,84.00
2022-10-28T12:13:38.159Z,83.72
2022-10-28T12:16:04.720Z,82.97
2022-10-28T12:18:52.882Z,82.93
2022-10-28T12:24:06.604Z,82.92
2022-10-28T12:26:40.222Z,82.87
2022-10-28T12:29:14.801Z,83.31
2022-10-28T12:31:45.183Z,83.34
2022-10-28T12:34:15.385Z,83.71
2022-10-28T12:36:45.165Z,84.01
2022-10-28T12:39:33.341Z,83.86
2022-10-28T12:45:19.305Z,83.26
2022-10-28T12:48:07.612Z,83.58
2022-10-28T12:50:35.005Z,83.29
2022-10-28T12:53:02.466Z,83.47
2022-10-28T12:55:33.698Z,83.59
2022-10-28T12:58:06.337Z,83.45
2022-10-28T13:00:41.226Z,83.40
2022-10-28T13:03:12.645Z,83.30
2022-10-28T13:05:45.810Z,83.24
2022-10-28T13:08:35.815Z,83.30
2022-10-28T13:11:21.776Z,83.35
2022-10-28T13:13:48.875Z,83.19
2022-10-28T13:16:42.825Z,83.40
2022-10-28T13:19:28.596Z,83.50
2022-10-28T13:22:22.509Z,83.34
2022-10-28T13:24:56.957Z,83.58
2022-10-28T13:27:25.153Z,83.52
2022-10-28T13:29:55.666Z,83.90
2022-10-28T13:32:35.779Z,83.98
2022-10-28T13:35:11.789Z,84.13
2022-10-28T13:37:39.880Z,84.32
2022-10-28T13:40:07.794Z,84.37
2022-10-28T13:43:06.911Z,84.81
2022-10-28T13:45:59.274Z,84.89
2022-10-28T13:48:35.168Z,84.80
2022-10-28T13:51:11.254Z,84.58
2022-10-28T13:53:38.869Z,84.54
2022-10-28T13:56:16.759Z,84.43
2022-10-28T13:58:54.126Z,84.55
2022-10-28T14:01:35.947Z,84.19
2022-10-28T14:04:03.964Z,84.00
2022-10-28T14:06:32.559Z,84.30
2022-10-28T14:08:59.363Z,84.10
2022-10-28T14:11:29.263Z,84.19
2022-10-28T14:13:59.854Z,84.21
2022-10-28T14:16:30.894Z,83.99
2022-10-28T14:19:19.021Z,83.84
2022-10-28T14:21:57.712Z,83.86
2022-10-28T14:24:31.708Z,83.90
2022-10-28T14:27:04.387Z,84.04
2022-10-28T14:29:31.417Z,84.14
2022-10-28T14:31:57.956Z,84.14
2022-10-28T14:34:33.589Z,84.29
2022-10-28T14:37:11.695Z,84.26
2022-10-28T14:39:43.976Z,84.25
2022-10-28T14:42:28.856Z,83.96
2022-10-28T14:45:01.789Z,84.16
2022-10-28T14:47:46.470Z,84.34
2022-10-28T14:50:21.955Z,84.35
2022-10-28T14:52:50.345Z,84.71
2022-10-28T14:55:28.365Z,84.50
2022-10-28T14:58:11.430Z,84.58
2022-10-28T15:00:41.200Z,84.79
2022-10-28T15:03:10.279Z,84.93
2022-10-28T15:05:37.252Z,84.98
2022-10-28T15:08:04.191Z,84.92
2022-10-28T15:10:33.830Z,85.06
2022-10-28T15:13:00.623Z,85.05
2022-10-28T15:15:29.597Z,85.17
2022-10-28T15:17:57.874Z,85.60
2022-10-28T15:20:30.087Z,85.38
2022-10-28T15:23:14.125Z,85.58
2022-10-28T15:25:41.151Z,85.54
2022-10-28T15:28:12.306Z,86.07
2022-10-28T15:30:46.087Z,86.14
2022-10-28T15:33:20.161Z,86.27
2022-10-28T15:35:48.066Z,86.19
2022-10-28T15:38:24.178Z,85.86
2022-10-28T15:40:52.373Z,86.29
2022-10-28T15:43:21.388Z,86.12
2022-10-28T15:45:48.460Z,86.34
2022-10-28T15:48:20.276Z,86.33
2022-10-28T15:51:12.207Z,86.35
2022-10-28T15:53:42.914Z,86.87
2022-10-28T15:56:18.325Z,86.59
2022-10-28T15:58:46.874Z,86.82
2022-10-28T16:01:33.009Z,86.72
2022-10-28T16:04:00.420Z,87.01
2022-10-28T16:06:28.153Z,87.06
2022-10-28T16:09:14.291Z,87.32
2022-10-28T16:11:42.832Z,87.23
2022-10-28T16:14:40.107Z,87.45
2022-10-28T16:17:19.103Z,87.42
2022-10-28T16:19:54.275Z,87.83
2022-10-28T16:22:22.907Z,87.62
2022-10-28T16:25:04.907Z,87.62
2022-10-28T16:27:32.647Z,87.97
2022-10-28T16:29:59.603Z,87.86
2022-10-28T16:32:28.821Z,87.98
2022-10-28T16:34:57.204Z,88.22
2022-10-28T16:37:25.897Z,87.98
2022-10-28T16:39:52.888Z,88.37
2022-10-28T16:42:22.639Z,88.29
2022-10-28T16:44:49.528Z,88.60
2022-10-28T16:47:18.504Z,88.65
2022-10-28T16:49:45.487Z,88.77
2022-10-28T16:52:14.638Z,88.97
2022-10-28T16:54:41.301Z,89.11
2022-10-28T16:57:08.004Z,89.30
2022-10-28T16:59:34.751Z,89.31
2022-10-28T17:02:01.521Z,89.52
2022-10-28T17:04:29.789Z,89.83
2022-10-28T17:06:56.531Z,89.77
2022-10-28T17:09:23.261Z,90.23
2022-10-28T17:11:49.900Z,90.16
2022-10-28T17:14:16.573Z,90.35
2022-10-28T17:16:43.561Z,90.73
2022-10-28T17:19:10.397Z,90.87
2022-10-28T17:21:37.045Z,90.99
2022-10-28T17:24:04.336Z,91.19
2022-10-28T17:26:30.966Z,91.35
2022-10-28T17:28:58.371Z,91.28
2022-10-28T17:31:26.227Z,91.69
2022-10-28T17:34:00.810Z,91.50
2022-10-28T17:36:29.233Z,91.48
2022-10-28T17:38:56.016Z,91.74
2022-10-28T17:41:22.889Z,91.61
2022-10-28T17:43:53.503Z,91.48
2022-10-28T17:50:04.657Z,91.84
2022-10-28T17:53:24.022Z,91.79
2022-10-28T17:56:16.226Z,92.16
2022-10-28T17:58:43.622Z,92.18
2022-10-28T18:01:10.495Z,92.20
2022-10-28T18:03:44.429Z,92.54
2022-10-28T18:06:17.439Z,92.54
2022-10-28T18:08:47.692Z,92.54
2022-10-28T18:11:15.358Z,92.64
2022-10-28T18:13:45.099Z,92.80
2022-10-28T18:16:13.339Z,92.67
2022-10-28T18:18:42.491Z,92.80
2022-10-28T18:21:11.557Z,93.11
2022-10-28T18:23:55.446Z,93.43
2022-10-28T18:26:33.594Z,93.44
2022-10-28T18:29:04.076Z,93.53
2022-10-28T18:31:34.118Z,93.25
2022-10-28T18:34:01.745Z,93.31
2022-10-28T18:36:30.909Z,93.40
2022-10-28T18:38:58.104Z,93.71
2022-10-28T18:41:26.851Z,93.45
2022-10-28T18:44:22.223Z,93.52
2022-10-28T18:46:50.660Z,93.80
2022-10-28T18:49:17.361Z,93.80
2022-10-28T18:51:44.435Z,93.68
2022-10-28T18:54:12.014Z,93.98
2022-10-28T18:56:46.192Z,94.06
2022-10-28T18:59:29.096Z,94.09
2022-10-28T19:05:52.909Z,93.84
2022-10-28T19:08:20.841Z,93.93
2022-10-28T19:10:48.779Z,94.24
2022-10-28T19:13:15.507Z,94.20
2022-10-28T19:15:51.962Z,94.16
2022-10-28T19:18:19.530Z,94.03
2022-10-28T19:20:46.752Z,94.39
2022-10-28T19:23:15.290Z,94.22
2022-10-28T19:25:42.029Z,94.54
2022-10-28T19:28:09.204Z,94.38
2022-10-28T19:30:37.742Z,94.23
2022-10-28T19:33:04.561Z,94.34
2022-10-28T19:35:32.799Z,94.30
2022-10-28T19:37:59.567Z,94.64
2022-10-28T19:40:26.414Z,94.68
2022-10-28T19:42:53.921Z,94.75
2022-10-28T19:45:20.956Z,94.71
2022-10-28T19:47:47.704Z,94.53
2022-10-28T19:50:14.560Z,94.86
2022-10-28T19:52:42.345Z,94.88
2022-10-28T19:55:14.472Z,94.93
2022-10-28T19:57:41.706Z,95.00
2022-10-28T20:00:09.744Z,95.09
2022-10-28T20:02:39.375Z,95.16
2022-10-28T20:05:06.814Z,94.89
2022-10-28T20:07:33.665Z,95.28
2022-10-28T20:10:00.614Z,94.99
2022-10-28T20:12:27.640Z,95.26
2022-10-28T20:14:54.388Z,95.09
2022-10-28T20:17:21.128Z,95.22
2022-10-28T20:19:47.975Z,95.12
2022-10-28T20:22:14.712Z,95.35
2022-10-28T20:24:41.451Z,95.24
2022-10-28T20:27:08.158Z,95.47
2022-10-28T20:29:34.896Z,95.23
2022-10-28T20:32:01.694Z,95.44
2022-10-28T20:34:28.446Z,95.61
2022-10-28T20:36:55.185Z,95.40
2022-10-28T20:39:22.205Z,95.25
2022-10-28T20:41:49.587Z,95.30
2022-10-28T20:44:16.477Z,95.62
2022-10-28T20:46:45.548Z,95.35
2022-10-28T20:49:18.963Z,95.61
2022-10-28T20:51:50.757Z,95.37
2022-10-28T20:54:18.942Z,95.41
2022-10-28T20:56:46.472Z,95.66
2022-10-28T20:59:22.049Z,95.49
2022-10-28T21:01:50.061Z,95.44
2022-10-28T21:04:17.703Z,95.68
2022-10-28T21:06:44.668Z,95.77
2022-10-28T21:09:12.287Z,95.77
2022-10-28T21:11:39.125Z,95.78
2022-10-28T21:14:06.001Z,95.57
2022-10-28T21:16:32.745Z,95.83
2022-10-28T21:18:59.702Z,95.51
2022-10-28T21:21:28.317Z,95.49
2022-10-28T21:23:55.389Z,95.87
2022-10-28T21:26:22.375Z,95.72
2022-10-28T21:28:52.483Z,95.60
2022-10-28T21:31:20.542Z,95.65
2022-10-28T21:33:47.571Z,95.76
2022-10-28T21:36:15.898Z,95.78
2022-10-28T21:38:43.149Z,96.13
2022-10-28T21:41:17.354Z,95.94
2022-10-28T21:43:45.702Z,95.86
2022-10-28T21:46:12.428Z,96.18
2022-10-28T21:48:39.638Z,95.81
2022-10-28T21:51:10.170Z,95.82
2022-10-28T21:53:40.483Z,96.15
2022-10-28T21:56:16.559Z,95.91
2022-10-28T21:58:43.849Z,95.90
2022-10-28T22:01:18.317Z,95.91
2022-10-28T22:03:45.309Z,95.95
2022-10-28T22:06:12.084Z,96.25
2022-10-28T22:08:39.039Z,95.94
2022-10-28T22:11:07.490Z,95.94
2022-10-28T22:13:34.727Z,96.17
2022-10-28T22:16:03.430Z,96.15
2022-10-28T22:18:31.449Z,96.02
2022-10-28T22:21:03.247Z,96.27
2022-10-28T22:23:30.024Z,96.10
2022-10-28T22:26:00.414Z,96.11
2022-10-28T22:28:27.490Z,96.21
2022-10-28T22:31:04.605Z,96.28
2022-10-28T22:33:31.812Z,96.05
2022-10-28T22:35:59.364Z,96.23
2022-10-28T22:38:26.442Z,96.12
2022-10-28T22:41:03.076Z,96.42
2022-10-28T22:43:30.106Z,96.10
2022-10-28T22:46:00.846Z,96.27
2022-10-28T22:48:27.993Z,96.47
2022-10-28T22:50:54.879Z,96.07
2022-10-28T22:53:21.708Z,96.43
2022-10-28T22:55:48.876Z,96.39
2022-10-28T22:58:16.422Z,96.18
2022-10-28T23:00:43.233Z,96.16
2022-10-28T23:03:10.261Z,96.07
2022-10-28T23:05:37.115Z,96.45
2022-10-28T23:08:04.064Z,96.24
2022-10-28T23:10:31.224Z,96.42
2022-10-28T23:13:00.961Z,96.10
2022-10-28T23:15:28.158Z,96.17
2022-10-28T23:17:55.760Z,96.40
2022-10-28T23:20:24.245Z,96.18
2022-10-28T23:22:51.084Z,96.28
2022-10-28T23:25:17.853Z,96.37
2022-10-28T23:27:44.825Z,96.43
2022-10-28T23:30:12.881Z,96.06
2022-10-28T23:32:40.345Z,96.09
2022-10-28T23:35:07.492Z,96.35
2022-10-28T23:37:34.248Z,96.36
2022-10-28T23:40:00.996Z,96.26
2022-10-28T23:42:27.742Z,96.10
2022-10-28T23:44:54.591Z,96.25
2022-10-28T23:47:21.426Z,96.12
2022-10-28T23:49:48.286Z,96.24
2022-10-28T23:52:15.033Z,96.50
2022-10-28T23:54:42.144Z,96.10
2022-10-28T23:57:08.969Z,96.37
2022-10-28T23:59:35.797Z,96.38
